Time;durP1;ratioP1;P1;durP2;ratioP2;P2;SDS_P1;SDS_P2;PMS_P1;PMS_P2;Temp;Humidity;BMP_temperature;BMP_pressure;BME280_temperature;BME280_humidity;BME280_pressure;Samples;Min_cycle;Max_cycle;Signal;HPM_P1;HPM_P2
2023/09/04 00:02:15;;;;;;;5.10;3.50;;;;;;;14.65;77.27;101417.33;105492;278;38254;-74
2023/09/04 00:04:51;;;;;;;5.80;3.40;;;;;;;14.64;77.09;101416.69;105460;278;38761;-74
2023/09/04 00:07:25;;;;;;;5.20;3.40;;;;;;;14.61;77.51;101419.60;105424;278;38396;-73
2023/09/04 00:09:59;;;;;;;3.50;3.10;;;;;;;14.59;77.46;101417.02;105460;278;39629;-73
2023/09/04 00:12:34;;;;;;;4.30;3.00;;;;;;;14.54;77.70;101418.30;105890;278;38490;-73
2023/09/04 00:15:10;;;;;;;5.30;3.00;;;;;;;14.48;77.85;101414.11;105242;279;39594;-73
2023/09/04 00:17:44;;;;;;;6.00;3.20;;;;;;;14.45;78.24;101408.59;105465;278;38802;-73
2023/09/04 00:20:18;;;;;;;4.10;3.20;;;;;;;14.41;78.24;101407.33;105447;278;38530;-73
2023/09/04 00:22:51;;;;;;;4.60;3.50;;;;;;;14.35;78.19;101412.10;105442;278;38968;-74
2023/09/04 00:25:25;;;;;;;4.80;3.20;;;;;;;14.30;78.37;101413.20;105908;278;38441;-74
2023/09/04 00:27:59;;;;;;;4.50;3.40;;;;;;;14.26;78.53;101412.08;105429;278;40145;-74
2023/09/04 00:30:33;;;;;;;4.30;3.30;;;;;;;14.23;78.62;101410.45;105477;278;38508;-73
2023/09/04 00:33:07;;;;;;;5.40;3.70;;;;;;;14.17;78.63;101413.83;105447;278;38225;-73
2023/09/04 00:35:41;;;;;;;4.90;3.20;;;;;;;14.13;78.57;101412.05;105922;278;38874;-73
2023/09/04 00:38:15;;;;;;;4.30;3.10;;;;;;;14.07;78.71;101413.15;105476;278;38650;-74
2023/09/04 00:40:49;;;;;;;5.10;3.20;;;;;;;14.04;78.86;101412.02;105433;278;39442;-73
2023/09/04 00:43:23;;;;;;;4.10;3.60;;;;;;;14.01;79.05;101412.30;105415;278;39439;-73
2023/09/04 00:45:57;;;;;;;4.10;3.20;;;;;;;13.98;78.91;101412.27;105813;278;38610;-74
2023/09/04 00:48:31;;;;;;;5.50;3.10;;;;;;;13.92;78.95;101414.91;105729;279;174342;-74
2023/09/04 00:51:05;;;;;;;7.30;3.40;;;;;;;13.87;78.89;101419.81;105422;278;39431;-74
2023/09/04 00:53:39;;;;;;;5.20;3.40;;;;;;;13.83;79.05;101420.67;105841;278;38246;-74
2023/09/04 00:56:13;;;;;;;4.90;3.20;;;;;;;13.78;79.11;101416.98;105850;278;38387;-74
2023/09/04 00:58:47;;;;;;;3.80;3.00;;;;;;;13.74;79.29;101422.70;105435;278;38811;-75
2023/09/04 01:01:20;;;;;;;3.80;3.20;;;;;;;13.73;79.57;101421.88;105833;278;38297;-74
2023/09/04 01:03:54;;;;;;;4.30;3.20;;;;;;;13.68;79.47;101423.29;105846;278;38711;-74
2023/09/04 01:06:28;;;;;;;4.20;3.20;;;;;;;13.62;79.60;101426.81;105421;278;38236;-74
2023/09/04 01:09:03;;;;;;;4.20;3.60;;;;;;;13.57;79.55;101425.40;105322;267;174457;-74
2023/09/04 01:11:39;;;;;;;3.90;3.50;;;;;;;13.55;79.91;101422.52;104741;278;897189;-74
2023/09/04 01:14:17;;;;;;;5.00;3.30;;;;;;;13.51;80.04;101422.61;105450;278;40158;-74
2023/09/04 01:16:51;;;;;;;4.50;3.20;;;;;;;13.48;80.15;101417.64;105445;278;38261;-74
2023/09/04 01:19:24;;;;;;;5.00;3.50;;;;;;;13.43;79.99;101411.14;105404;278;38525;-74
2023/09/04 01:21:58;;;;;;;4.60;3.20;;;;;;;13.37;80.16;101412.73;105432;278;38354;-73
2023/09/04 01:24:32;;;;;;;5.20;3.40;;;;;;;13.33;80.41;101417.08;105840;278;40189;-73
2023/09/04 01:27:10;;;;;;;4.60;3.60;;;;;;;13.29;80.63;101418.96;105865;278;38751;-73
2023/09/04 01:29:50;;;;;;;5.00;3.50;;;;;;;13.25;80.72;101422.08;105451;278;38462;-73
2023/09/04 01:32:29;;;;;;;4.10;3.40;;;;;;;13.23;80.83;101424.25;105416;278;39655;-73
2023/09/04 01:35:04;;;;;;;5.40;4.00;;;;;;;13.20;80.95;101425.39;105745;278;174416;-73
2023/09/04 01:37:38;;;;;;;9.00;4.10;;;;;;;13.17;80.93;101427.89;105441;279;39080;-73
2023/09/04 01:40:13;;;;;;;3.80;3.30;;;;;;;13.15;80.88;101419.20;105446;279;38716;-73
2023/09/04 01:42:47;;;;;;;5.30;3.80;;;;;;;13.11;80.86;101424.92;105414;278;38235;-73
2023/09/04 01:45:21;;;;;;;3.90;3.30;;;;;;;13.06;80.74;101427.02;105862;278;39797;-73
2023/09/04 01:47:55;;;;;;;7.30;3.90;;;;;;;13.03;80.90;101428.00;105401;278;39401;-73
2023/09/04 01:50:29;;;;;;;5.30;3.40;;;;;;;13.00;80.99;101432.48;105385;278;38468;-73
2023/09/04 01:53:04;;;;;;;6.20;3.40;;;;;;;12.97;81.04;101432.21;105429;279;38860;-73
2023/09/04 01:55:37;;;;;;;4.90;3.40;;;;;;;12.93;81.00;101435.33;105445;278;39061;-73
2023/09/04 01:58:11;;;;;;;6.00;3.50;;;;;;;12.90;81.21;101443.98;105242;279;40187;-74
2023/09/04 02:00:45;;;;;;;6.00;3.60;;;;;;;12.87;81.26;101443.19;105856;278;39755;-73
2023/09/04 02:03:19;;;;;;;4.40;3.60;;;;;;;12.81;81.18;101444.09;105145;279;174533;-73
2023/09/04 02:05:53;;;;;;;6.00;4.00;;;;;;;12.75;81.27;101448.13;105407;278;38725;-73
2023/09/04 02:08:27;;;;;;;5.20;3.40;;;;;;;12.70;81.41;101452.84;105407;278;38250;-73
2023/09/04 02:11:01;;;;;;;5.00;3.40;;;;;;;12.68;81.56;101461.10;105446;278;38739;-73
2023/09/04 02:13:35;;;;;;;4.80;4.00;;;;;;;12.66;81.79;101465.89;105427;278;38699;-73
2023/09/04 02:16:09;;;;;;;6.60;3.90;;;;;;;12.65;81.92;101465.94;105872;279;39267;-73
2023/09/04 02:18:43;;;;;;;4.10;3.70;;;;;;;12.63;81.85;101468.59;105857;278;39067;-73
2023/09/04 02:21:17;;;;;;;4.70;3.60;;;;;;;12.61;81.87;101476.70;105433;278;38723;-73
2023/09/04 02:23:50;;;;;;;5.20;4.00;;;;;;;12.60;82.02;101484.63;105831;278;39368;-73
2023/09/04 02:26:24;;;;;;;4.20;3.50;;;;;;;12.58;82.17;101484.51;105308;279;174398;-73
2023/09/04 02:28:58;;;;;;;5.10;4.20;;;;;;;12.56;82.10;101481.59;105421;278;39431;-73
2023/09/04 02:31:32;;;;;;;4.10;3.50;;;;;;;12.51;82.06;101484.02;105915;278;39421;-73
2023/09/04 02:34:06;;;;;;;4.30;3.40;;;;;;;12.46;81.83;101487.83;105413;278;38933;-73
2023/09/04 02:36:40;;;;;;;5.30;3.50;;;;;;;12.42;82.00;101487.23;105241;278;38331;-73
2023/09/04 02:39:14;;;;;;;4.90;4.00;;;;;;;12.39;82.01;101480.66;105418;279;38360;-73
2023/09/04 02:41:48;;;;;;;5.20;4.20;;;;;;;12.37;82.04;101481.40;105451;278;38516;-73
2023/09/04 02:44:22;;;;;;;4.10;3.70;;;;;;;12.36;82.27;101481.45;105420;278;38293;-72
2023/09/04 02:46:55;;;;;;;5.00;4.00;;;;;;;12.35;82.59;101480.59;105269;279;38794;-73
2023/09/04 02:49:29;;;;;;;6.40;3.80;;;;;;;12.34;82.63;101484.83;105417;278;38417;-73
2023/09/04 02:52:03;;;;;;;4.80;3.60;;;;;;;12.33;82.53;101490.11;105846;278;38382;-75
2023/09/04 02:54:37;;;;;;;3.80;3.20;;;;;;;12.32;82.58;101495.74;105434;279;38508;-75
2023/09/04 02:57:10;;;;;;;4.80;3.40;;;;;;;12.31;82.75;101500.81;105417;278;39717;-73
2023/09/04 02:59:44;;;;;;;5.10;3.60;;;;;;;12.34;83.05;101504.41;105437;278;39417;-73
2023/09/04 03:02:18;;;;;;;4.40;3.50;;;;;;;12.39;83.38;101507.77;105420;278;38909;-73
2023/09/04 03:04:56;;;;;;;4.40;3.60;;;;;;;12.48;83.95;101503.89;105294;278;174469;-73
2023/09/04 03:07:30;;;;;;;4.10;3.50;;;;;;;12.57;84.24;101506.42;105447;278;38263;-73
2023/09/04 03:10:04;;;;;;;3.60;3.30;;;;;;;12.62;84.29;101508.03;105403;278;38733;-73
2023/09/04 03:12:38;;;;;;;5.30;3.80;;;;;;;12.69;84.20;101508.69;105844;278;39374;-74
2023/09/04 03:15:13;;;;;;;4.50;3.70;;;;;;;12.76;84.62;101508.68;105408;279;38256;-74
2023/09/04 03:17:47;;;;;;;4.60;3.60;;;;;;;12.87;84.96;101512.04;105811;278;38249;-73
2023/09/04 03:20:21;;;;;;;5.10;4.20;;;;;;;12.94;84.97;101507.64;105328;278;174370;-73
2023/09/04 03:22:54;;;;;;;4.40;3.60;;;;;;;13.03;85.46;101512.27;105440;279;39256;-73
2023/09/04 03:25:28;;;;;;;6.10;3.70;;;;;;;13.09;85.31;101516.77;104820;278;636768;-73
2023/09/04 03:28:02;;;;;;;4.70;3.90;;;;;;;13.13;85.19;101516.50;105418;278;38249;-74
2023/09/04 03:30:38;;;;;;;4.80;3.40;;;;;;;13.18;85.68;101518.80;105437;278;38274;-74
2023/09/04 03:33:12;;;;;;;4.10;3.70;;;;;;;13.25;85.78;101519.50;105417;278;39437;-74
2023/09/04 03:35:46;;;;;;;5.00;3.70;;;;;;;13.31;85.87;101516.52;105435;278;38464;-73
2023/09/04 03:38:19;;;;;;;6.40;3.50;;;;;;;13.34;85.47;101521.48;105722;279;174367;-73
2023/09/04 03:40:53;;;;;;;4.50;4.00;;;;;;;13.38;85.22;101521.73;105441;278;39661;-73
2023/09/04 03:43:28;;;;;;;4.80;3.50;;;;;;;13.40;85.39;101531.30;105233;280;40421;-74
2023/09/04 03:46:02;;;;;;;7.30;4.10;;;;;;;13.44;85.36;101540.98;105743;278;171872;-74
2023/09/04 03:48:36;;;;;;;5.20;3.60;;;;;;;13.44;84.98;101540.11;105414;278;38249;-74
2023/09/04 03:51:10;;;;;;;5.30;3.50;;;;;;;13.46;85.24;101537.44;105842;278;38239;-74
2023/09/04 03:53:44;;;;;;;4.20;3.60;;;;;;;13.52;85.60;101540.77;105829;278;38517;-74
2023/09/04 03:56:18;;;;;;;6.00;4.00;;;;;;;13.57;85.80;101544.62;105441;278;38565;-74
2023/09/04 03:58:52;;;;;;;4.50;4.10;;;;;;;13.66;86.13;101543.26;105400;278;38277;-74
2023/09/04 04:01:26;;;;;;;4.50;3.40;;;;;;;13.72;85.80;101547.84;105872;279;39000;-74
2023/09/04 04:04:00;;;;;;;5.20;3.80;;;;;;;13.76;86.01;101548.59;105444;279;38807;-75
2023/09/04 04:06:34;;;;;;;5.10;3.90;;;;;;;13.81;85.88;101546.65;105329;279;174379;-74
2023/09/04 04:09:08;;;;;;;6.50;4.00;;;;;;;13.86;86.12;101544.90;105834;278;40127;-74
2023/09/04 04:11:41;;;;;;;5.60;4.40;;;;;;;13.90;86.06;101545.12;105817;279;39162;-74
2023/09/04 04:14:15;;;;;;;7.80;4.50;;;;;;;13.96;85.96;101548.98;105437;279;38683;-73
2023/09/04 04:16:49;;;;;;;4.40;3.90;;;;;;;13.96;86.00;101548.44;105250;278;38282;-73
2023/09/04 04:19:23;;;;;;;4.40;3.70;;;;;;;13.99;85.97;101546.24;105402;278;39506;-73
2023/09/04 04:21:57;;;;;;;5.60;3.90;;;;;;;14.06;86.08;101554.95;105225;279;39133;-73
2023/09/04 04:24:31;;;;;;;8.30;5.30;;;;;;;14.12;86.33;101557.19;105431;278;38278;-73
2023/09/04 04:27:05;;;;;;;5.10;3.80;;;;;;;14.19;86.59;101557.15;105419;278;39478;-74
2023/09/04 04:29:39;;;;;;;5.20;3.70;;;;;;;14.22;86.27;101556.00;105387;278;38482;-74
2023/09/04 04:32:13;;;;;;;4.10;3.70;;;;;;;14.24;86.22;101551.19;105301;278;171937;-73
2023/09/04 04:34:46;;;;;;;4.00;3.60;;;;;;;14.26;86.02;101547.42;105841;278;39675;-74
2023/09/04 04:37:20;;;;;;;6.40;3.80;;;;;;;14.30;86.07;101545.20;105387;278;38478;-73
2023/09/04 04:39:57;;;;;;;4.90;3.70;;;;;;;14.31;85.97;101539.35;105261;280;38248;-73
2023/09/04 04:42:31;;;;;;;4.40;3.30;;;;;;;14.27;85.49;101541.78;105418;279;38488;-73
2023/09/04 04:45:06;;;;;;;5.40;3.90;;;;;;;14.24;85.40;101545.76;105838;278;40282;-73
2023/09/04 04:47:40;;;;;;;7.90;3.50;;;;;;;14.24;85.48;101547.67;105431;278;38698;-74
2023/09/04 04:50:14;;;;;;;4.20;3.60;;;;;;;14.24;85.54;101549.77;105419;266;38500;-74
2023/09/04 04:52:48;;;;;;;5.80;3.90;;;;;;;14.22;85.30;101551.09;105427;278;38409;-74
2023/09/04 04:55:22;;;;;;;5.20;3.70;;;;;;;14.18;85.26;101546.30;105433;278;38504;-74
2023/09/04 04:57:56;;;;;;;3.90;3.50;;;;;;;14.13;85.30;101547.15;105850;278;40202;-73
2023/09/04 05:00:30;;;;;;;5.90;3.50;;;;;;;14.15;85.78;101551.66;105825;278;38830;-74
2023/09/04 05:03:04;;;;;;;4.50;3.40;;;;;;;14.22;86.07;101555.46;105405;278;39314;-75
2023/09/04 05:05:38;;;;;;;4.40;3.30;;;;;;;14.27;86.23;101560.38;105415;279;38513;-74
2023/09/04 05:08:12;;;;;;;4.70;3.20;;;;;;;14.35;86.94;101560.45;105830;278;40247;-74
2023/09/04 05:10:46;;;;;;;5.80;3.60;;;;;;;14.46;87.19;101557.08;105866;278;38951;-74
2023/09/04 05:13:20;;;;;;;6.30;4.10;;;;;;;14.57;87.31;101553.58;105432;278;38831;-74
2023/09/04 05:15:54;;;;;;;5.30;4.00;;;;;;;14.67;87.30;101554.80;105419;278;38763;-74
2023/09/04 05:18:28;;;;;;;5.90;3.90;;;;;;;14.75;87.11;101553.77;105848;279;39861;-74
2023/09/04 05:21:04;;;;;;;9.10;4.60;;;;;;;14.84;87.12;101548.04;105437;279;39387;-74
2023/09/04 05:23:38;;;;;;;6.60;4.30;;;;;;;14.93;87.14;101546.06;105384;278;38375;-74
2023/09/04 05:26:12;;;;;;;6.90;3.80;;;;;;;15.06;87.43;101544.02;105415;278;38391;-72
2023/09/04 05:28:46;;;;;;;6.30;4.00;;;;;;;15.19;87.40;101551.27;105430;278;39213;-73
2023/09/04 05:31:20;;;;;;;6.30;4.00;;;;;;;15.27;86.89;101559.23;105416;278;39481;-73
2023/09/04 05:33:54;;;;;;;7.40;4.70;;;;;;;15.33;86.47;101568.49;105438;278;39565;-74
2023/09/04 05:36:28;;;;;;;6.80;4.40;;;;;;;15.41;86.72;101570.45;105880;278;38332;-74
2023/09/04 05:39:02;;;;;;;7.10;4.20;;;;;;;15.53;86.94;101581.24;105426;278;39146;-74
2023/09/04 05:41:36;;;;;;;6.60;4.10;;;;;;;15.67;86.82;101583.54;105404;278;39651;-74
2023/09/04 05:44:10;;;;;;;6.00;4.30;;;;;;;15.83;86.82;101589.60;105299;278;174276;-74
2023/09/04 05:46:44;;;;;;;9.60;4.30;;;;;;;15.97;86.37;101587.95;105396;278;38782;-74
2023/09/04 05:49:18;;;;;;;6.00;4.50;;;;;;;16.09;85.67;101579.86;105425;278;38807;-74
2023/09/04 05:51:53;;;;;;;5.80;3.70;;;;;;;16.24;85.48;101580.48;105387;278;38253;-74
2023/09/04 05:54:27;;;;;;;5.80;4.00;;;;;;;16.38;84.63;101583.04;105433;278;38520;-74
2023/09/04 05:57:01;;;;;;;5.40;3.40;;;;;;;16.47;84.08;101585.86;105422;278;38661;-74
2023/09/04 05:59:35;;;;;;;5.00;3.50;;;;;;;16.55;83.62;101593.27;105382;278;38461;-74
2023/09/04 06:02:09;;;;;;;6.40;3.50;;;;;;;16.63;83.20;101598.33;105428;278;37611;-74
2023/09/04 06:04:43;;;;;;;6.00;3.70;;;;;;;16.67;82.34;101601.02;105859;278;38259;-74
2023/09/04 06:07:17;;;;;;;4.60;4.00;;;;;;;16.72;82.12;101600.82;105432;278;39915;-74
2023/09/04 06:09:51;;;;;;;4.80;3.50;;;;;;;16.78;81.77;101606.20;105403;278;38401;-75
2023/09/04 06:12:25;;;;;;;7.40;3.50;;;;;;;16.83;81.48;101602.98;105867;283;38537;-73
2023/09/04 06:14:58;;;;;;;9.10;4.00;;;;;;;16.89;80.94;101603.73;105405;278;38943;-73
2023/09/04 06:17:40;;;;;;;9.90;4.00;;;;;;;16.96;80.76;101605.05;105444;278;38552;-73
2023/09/04 06:20:16;;;;;;;12.30;3.70;;;;;;;17.07;80.74;101613.73;105309;278;171661;-73
2023/09/04 06:22:50;;;;;;;11.00;3.80;;;;;;;17.20;80.41;101611.36;105405;278;38244;-73
2023/09/04 06:25:25;;;;;;;12.40;4.10;;;;;;;17.30;79.22;101612.65;105432;278;38238;-74
2023/09/04 06:27:59;;;;;;;11.10;3.60;;;;;;;17.34;78.07;101621.29;105464;278;38268;-74
2023/09/04 06:30:33;;;;;;;12.50;3.70;;;;;;;17.36;77.89;101631.79;105460;283;38425;-74
2023/09/04 06:33:07;;;;;;;17.10;3.50;;;;;;;17.43;77.24;101636.95;105433;278;38278;-74
2023/09/04 06:35:41;;;;;;;7.50;2.90;;;;;;;17.45;76.16;101642.46;105414;278;39377;-74
2023/09/04 06:38:15;;;;;;;7.20;2.90;;;;;;;17.48;76.47;101644.77;105464;278;39336;-73
2023/09/04 06:40:57;;;;;;;8.60;2.40;;;;;;;17.54;75.09;101647.52;105315;278;174178;-74
2023/09/04 06:43:32;;;;;;;5.10;2.60;;;;;;;17.55;75.34;101657.20;105450;278;38294;-74
2023/09/04 06:46:06;;;;;;;8.20;2.70;;;;;;;17.56;74.68;101657.81;105419;278;38443;-74
2023/09/04 06:48:42;;;;;;;5.00;2.60;;;;;;;17.55;74.42;101658.77;105436;278;38380;-75
2023/09/04 06:51:16;;;;;;;8.40;2.90;;;;;;;17.55;74.30;101661.77;105446;278;38335;-75
2023/09/04 06:53:51;;;;;;;6.90;2.50;;;;;;;17.53;74.05;101656.91;105431;278;38409;-75
2023/09/04 06:56:25;;;;;;;8.50;3.00;;;;;;;17.55;74.50;101655.77;105263;280;38931;-75
2023/09/04 06:59:00;;;;;;;7.40;2.80;;;;;;;17.62;74.04;101661.05;105222;280;39538;-74
2023/09/04 07:01:35;;;;;;;4.70;2.70;;;;;;;17.70;73.41;101661.95;105422;279;39400;-74
2023/09/04 07:04:10;;;;;;;6.90;2.60;;;;;;;17.72;73.05;101662.89;105866;278;38463;-74
2023/09/04 07:06:44;;;;;;;5.40;2.60;;;;;;;17.81;73.36;101654.20;105259;279;39807;-74
2023/09/04 07:09:17;;;;;;;7.00;2.80;;;;;;;17.94;72.95;101658.54;105406;278;39889;-74
2023/09/04 07:11:51;;;;;;;6.70;2.40;;;;;;;18.03;72.50;101658.30;105451;278;39378;-74
2023/09/04 07:14:26;;;;;;;8.10;2.50;;;;;;;18.13;71.92;101660.63;105279;280;38681;-73
2023/09/04 07:17:00;;;;;;;11.80;2.70;;;;;;;18.24;71.68;101660.08;105428;278;40126;-74
2023/09/04 07:19:34;;;;;;;16.00;3.10;;;;;;;18.40;71.74;101655.41;105428;278;38267;-73
2023/09/04 07:22:09;;;;;;;9.70;3.10;;;;;;;18.59;70.65;101651.23;105831;278;39429;-73
2023/09/04 07:24:44;;;;;;;15.90;3.60;;;;;;;18.76;70.25;101656.40;105414;278;38365;-74
2023/09/04 07:27:21;;;;;;;10.10;2.70;;;;;;;18.91;69.07;101659.52;105468;278;38586;-74
2023/09/04 07:29:55;;;;;;;6.80;2.50;;;;;;;19.03;68.36;101663.13;105897;279;39602;-75
2023/09/04 07:32:29;;;;;;;6.70;2.70;;;;;;;19.23;68.17;101660.80;105435;278;38232;-73
2023/09/04 07:35:05;;;;;;;6.40;2.70;;;;;;;19.47;67.62;101661.11;105442;278;39409;-74
2023/09/04 07:37:39;;;;;;;6.60;2.20;;;;;;;19.72;67.06;101659.59;105443;283;38248;-74
2023/09/04 07:40:14;;;;;;;6.40;2.70;;;;;;;20.00;67.23;101665.42;105834;278;38460;-74
2023/09/04 07:42:48;;;;;;;8.90;2.70;;;;;;;20.23;65.87;101668.17;105409;278;39417;-75
2023/09/04 07:45:24;;;;;;;8.90;2.60;;;;;;;20.36;64.88;101670.06;105408;278;38259;-75
2023/09/04 07:47:58;;;;;;;7.40;2.20;;;;;;;20.47;64.13;101673.22;105439;278;38276;-75
2023/09/04 07:50:32;;;;;;;3.30;2.20;;;;;;;20.51;62.80;101671.19;105451;278;38723;-75
2023/09/04 07:53:06;;;;;;;5.60;2.10;;;;;;;20.53;62.15;101671.96;105470;278;38861;-74
2023/09/04 07:55:41;;;;;;;5.40;2.40;;;;;;;20.55;62.16;101668.99;105266;279;38530;-74
2023/09/04 07:58:15;;;;;;;4.00;2.20;;;;;;;20.58;61.32;101662.61;105819;278;38482;-73
2023/09/04 08:00:51;;;;;;;5.40;2.30;;;;;;;20.60;60.85;101657.16;105266;279;40114;-75
2023/09/04 08:03:25;;;;;;;5.50;2.30;;;;;;;20.65;60.73;101653.20;105843;278;38469;-74
2023/09/04 08:06:00;;;;;;;5.30;2.30;;;;;;;20.60;59.61;101657.20;105266;279;38256;-74
2023/09/04 08:08:34;;;;;;;4.20;2.40;;;;;;;20.52;59.42;101663.33;105415;278;38240;-74
2023/09/04 08:11:08;;;;;;;4.80;2.30;;;;;;;20.50;60.11;101666.83;105432;278;38244;-74
2023/09/04 08:13:42;;;;;;;4.60;2.50;;;;;;;20.45;59.60;101667.64;105431;278;38231;-75
2023/09/04 08:16:16;;;;;;;5.30;2.60;;;;;;;20.34;58.81;101665.10;105410;278;39276;-75
2023/09/04 08:18:50;;;;;;;4.90;2.50;;;;;;;20.19;58.83;101667.73;105428;278;39800;-73
2023/09/04 08:21:24;;;;;;;5.90;2.60;;;;;;;20.11;59.38;101665.47;105856;279;38301;-75
2023/09/04 08:23:58;;;;;;;7.20;2.90;;;;;;;20.08;59.51;101663.02;105415;278;38738;-76
2023/09/04 08:26:33;;;;;;;7.40;2.60;;;;;;;20.09;60.23;101661.73;105466;278;38286;-75
2023/09/04 08:29:07;;;;;;;11.00;2.40;;;;;;;20.14;60.00;101669.25;105882;279;38701;-75
2023/09/04 08:31:41;;;;;;;6.40;2.90;;;;;;;20.11;59.19;101675.47;105398;278;38223;-74
2023/09/04 08:34:15;;;;;;;6.30;2.00;;;;;;;20.07;60.11;101677.98;105430;278;38764;-73
2023/09/04 08:36:49;;;;;;;4.10;2.10;;;;;;;20.10;60.03;101683.66;105251;280;41352;-74
2023/09/04 08:39:23;;;;;;;4.70;2.50;;;;;;;20.07;59.53;101682.39;105432;278;38346;-74
2023/09/04 08:41:58;;;;;;;2.50;1.80;;;;;;;20.03;59.66;101682.42;105438;279;38232;-76
2023/09/04 08:44:32;;;;;;;4.60;2.20;;;;;;;20.05;60.25;101686.56;105432;278;38266;-75
2023/09/04 08:47:06;;;;;;;6.50;2.60;;;;;;;20.12;60.41;101682.32;105435;278;38407;-75
2023/09/04 08:49:40;;;;;;;3.70;2.00;;;;;;;20.22;61.08;101676.92;105436;278;38329;-76
2023/09/04 08:52:14;;;;;;;4.90;2.10;;;;;;;20.34;59.53;101681.02;105437;278;39557;-75
2023/09/04 08:54:48;;;;;;;5.90;2.60;;;;;;;20.40;59.55;101678.92;105849;278;39650;-75
2023/09/04 08:57:22;;;;;;;4.70;2.20;;;;;;;20.61;59.43;101686.54;105461;278;38226;-75
2023/09/04 08:59:56;;;;;;;4.50;2.00;;;;;;;20.83;58.23;101687.70;105329;278;173981;-73
2023/09/04 09:02:30;;;;;;;8.70;3.00;;;;;;;21.05;58.98;101684.25;105442;275;38812;-76
2023/09/04 09:05:07;;;;;;;4.60;2.40;;;;;;;21.45;57.77;101679.70;105880;278;38483;-75
2023/09/04 09:07:41;;;;;;;5.30;2.20;;;;;;;21.68;56.56;101681.41;105446;278;38279;-75
2023/09/04 09:10:18;;;;;;;5.20;2.20;;;;;;;21.85;56.28;101687.79;105229;279;38289;-75
2023/09/04 09:12:52;;;;;;;4.80;2.00;;;;;;;22.06;55.90;101685.70;105458;278;39419;-76
2023/09/04 09:15:26;;;;;;;3.10;1.80;;;;;;;22.21;55.25;101681.54;105845;278;38957;-75
2023/09/04 09:18:00;;;;;;;5.30;2.10;;;;;;;22.30;54.24;101682.20;105261;278;38315;-75
2023/09/04 09:20:35;;;;;;;4.40;1.80;;;;;;;22.38;54.44;101678.63;105403;278;38792;-75
2023/09/04 09:23:09;;;;;;;2.50;2.00;;;;;;;22.42;54.24;101678.92;105236;278;38453;-76
2023/09/04 09:25:44;;;;;;;4.70;2.30;;;;;;;22.42;54.06;101676.61;105433;278;39278;-75
2023/09/04 09:28:18;;;;;;;4.10;2.30;;;;;;;22.67;53.54;101670.47;105447;279;39560;-75
2023/09/04 09:30:52;;;;;;;7.40;2.60;;;;;;;22.96;53.25;101663.31;104756;278;888203;-75
2023/09/04 09:33:26;;;;;;;3.60;1.90;;;;;;;23.38;53.51;101657.17;105434;278;38298;-76
2023/09/04 09:36:00;;;;;;;4.90;1.90;;;;;;;23.72;52.26;101658.08;105410;278;38374;-75
2023/09/04 09:38:34;;;;;;;3.90;1.90;;;;;;;24.08;51.65;101656.89;105439;278;38370;-75
2023/09/04 09:41:08;;;;;;;5.20;1.70;;;;;;;24.51;51.96;101661.36;105858;278;38462;-75
2023/09/04 09:43:43;;;;;;;4.10;1.90;;;;;;;24.87;51.51;101657.98;105397;278;38386;-75
2023/09/04 09:46:17;;;;;;;4.90;1.90;;;;;;;25.05;50.55;101659.80;105257;279;41870;-75
2023/09/04 09:48:51;;;;;;;6.80;2.10;;;;;;;25.05;49.13;101664.65;105425;279;38537;-75
2023/09/04 09:51:25;;;;;;;4.30;1.80;;;;;;;24.88;48.51;101663.46;105453;278;38363;-75
2023/09/04 09:54:00;;;;;;;3.90;1.90;;;;;;;24.49;47.47;101666.15;105461;278;38514;-75
2023/09/04 09:56:34;;;;;;;3.40;1.70;;;;;;;23.97;47.65;101669.60;105424;279;38499;-75
2023/09/04 09:59:09;;;;;;;5.30;1.80;;;;;;;23.54;48.26;101672.09;105223;279;38757;-75
2023/09/04 10:01:43;;;;;;;5.70;1.90;;;;;;;23.07;48.50;101676.12;105470;278;39432;-75
2023/09/04 10:04:17;;;;;;;3.70;1.90;;;;;;;22.83;49.41;101674.54;105865;279;38855;-75
2023/09/04 10:06:52;;;;;;;5.90;1.90;;;;;;;22.74;49.45;101678.38;105412;278;39779;-76
2023/09/04 10:09:26;;;;;;;4.60;2.20;;;;;;;22.69;49.39;101668.36;105415;278;38573;-76
2023/09/04 10:12:07;;;;;;;2.90;1.50;;;;;;;22.81;50.82;101667.52;105455;278;38286;-76
2023/09/04 10:14:44;;;;;;;3.40;1.80;;;;;;;22.98;50.89;101663.38;105418;278;38780;-76
2023/09/04 10:17:21;;;;;;;4.00;1.90;;;;;;;23.15;50.25;101655.23;105860;278;38498;-75
2023/09/04 10:19:55;;;;;;;2.70;1.60;;;;;;;23.23;50.86;101654.12;105418;278;39070;-75
2023/09/04 10:22:31;;;;;;;4.40;1.70;;;;;;;23.21;50.75;101649.66;105342;278;174032;-75
2023/09/04 10:25:13;;;;;;;4.60;1.90;;;;;;;23.11;50.50;101654.41;105431;278;38391;-75
2023/09/04 10:27:52;;;;;;;5.10;2.00;;;;;;;22.95;50.58;101657.14;105432;275;38533;-75
2023/09/04 10:30:27;;;;;;;3.90;1.80;;;;;;;22.87;50.84;101652.70;105436;279;38540;-75
2023/09/04 10:33:01;;;;;;;3.60;2.00;;;;;;;22.87;51.05;101655.59;105878;278;39643;-75
2023/09/04 10:35:35;;;;;;;4.50;1.80;;;;;;;22.93;51.39;101657.34;105466;279;38517;-75
2023/09/04 10:38:09;;;;;;;4.40;1.60;;;;;;;23.06;51.35;101655.88;105868;278;38558;-75
2023/09/04 10:40:44;;;;;;;3.60;1.80;;;;;;;23.20;49.73;101655.81;105240;279;38526;-75
2023/09/04 10:43:18;;;;;;;4.00;1.60;;;;;;;23.24;49.23;101659.10;105252;278;38238;-75
2023/09/04 10:46:08;;;;;;;3.70;2.30;;;;;;;23.35;49.38;101660.56;105280;279;38360;-75
2023/09/04 10:48:46;;;;;;;5.30;1.70;;;;;;;23.55;49.17;101661.98;105439;278;38952;-75
2023/09/04 10:51:34;;;;;;;4.10;2.10;;;;;;;23.75;49.60;101658.25;105410;278;38474;-75
2023/09/04 10:54:28;;;;;;;3.90;2.00;;;;;;;23.97;49.10;101656.09;105330;278;171434;-75
2023/09/04 10:57:05;;;;;;;3.70;2.10;;;;;;;24.09;48.22;101654.34;105409;278;38868;-72
2023/09/04 11:00:08;;;;;;;4.70;2.10;;;;;;;24.06;47.68;101657.25;105895;278;39919;-72
2023/09/04 11:02:43;;;;;;;2.70;1.70;;;;;;;23.71;47.02;101655.66;105378;278;39439;-72
2023/09/04 11:05:17;;;;;;;4.00;1.90;;;;;;;23.35;47.54;101645.13;105861;278;38244;-71
2023/09/04 11:07:51;;;;;;;4.60;2.10;;;;;;;23.05;48.18;101643.48;105427;278;38510;-70
2023/09/04 11:10:42;;;;;;;3.60;1.90;;;;;;;22.82;48.43;101646.30;105444;278;38237;-71
2023/09/04 11:13:18;;;;;;;3.10;1.80;;;;;;;22.61;48.90;101650.43;105385;278;39387;-70
2023/09/04 11:15:56;;;;;;;5.50;2.20;;;;;;;22.53;49.74;101653.46;105434;278;38507;-70
2023/09/04 11:18:32;;;;;;;;;;;;;;;22.64;50.82;101649.67;105253;280;38686;-70
2023/09/04 11:21:06;;;;;;;3.60;2.00;;;;;;;22.77;51.09;101649.83;105425;266;38331;-70
2023/09/04 11:23:40;;;;;;;8.10;2.40;;;;;;;22.97;50.51;101648.50;104973;279;628204;-70
2023/09/04 11:26:14;;;;;;;3.90;2.00;;;;;;;23.14;49.99;101643.02;105400;278;39636;-70
2023/09/04 11:28:48;;;;;;;3.80;2.00;;;;;;;23.24;49.10;101638.55;105834;279;39011;-70
2023/09/04 11:31:22;;;;;;;4.30;1.60;;;;;;;23.34;48.11;101639.27;105447;278;38501;-70
2023/09/04 11:33:57;;;;;;;5.40;2.40;;;;;;;23.41;46.65;101641.60;105430;278;38295;-70
2023/09/04 11:36:31;;;;;;;3.90;1.80;;;;;;;23.52;46.74;101643.69;105426;278;39423;-70
2023/09/04 11:39:09;;;;;;;3.90;1.80;;;;;;;23.57;46.35;101642.60;105438;278;38239;-70
2023/09/04 11:41:49;;;;;;;4.20;1.90;;;;;;;23.52;45.75;101647.62;105436;279;38500;-70
2023/09/04 11:44:24;;;;;;;4.20;1.70;;;;;;;23.31;46.09;101642.20;105413;278;38433;-71
2023/09/04 11:47:00;;;;;;;2.50;1.40;;;;;;;23.04;45.96;101638.91;105877;278;38748;-72
2023/09/04 11:49:33;;;;;;;4.40;2.20;;;;;;;22.80;46.14;101632.20;105444;279;38715;-72
2023/09/04 11:52:08;;;;;;;4.80;1.80;;;;;;;22.63;46.59;101632.46;105456;275;38286;-70
2023/09/04 11:54:43;;;;;;;3.20;1.90;;;;;;;22.62;47.11;101633.64;105421;278;39521;-70
2023/09/04 11:57:17;;;;;;;4.10;1.80;;;;;;;22.63;47.17;101635.34;105825;279;38277;-70
2023/09/04 11:59:51;;;;;;;3.70;1.70;;;;;;;22.65;46.50;101630.36;105827;278;39848;-70